メインページ
METAR-TAF:

METAR-TAF

空港 :

ヤクーツク空港

ヤクーツク, ロシア

緯度: 62-01N, 経度: 129-43E, 海抜: 103m

現時点の気象観測

当レポートは40分前の02:30(UTC)に作成
西/北西の風 10kt
気温 12°C
湿度 35%
気圧 1016 hPa
視程10km以上
1,500メートル以下は雲なし、積乱雲なし

METAR: UEEE 210230Z 30005MPS CAVOK 12/M03 Q1016 R23L/09//60 NOSIG RMK QFE753

時間: 12:10 (03:10 UTC)

予報

当レポートは1時間10分前の02:00(UTC)に作成
予報は21日の 03時(UTC)から 22日の 09時(UTC)まで有効
北西の風 12kt、最大23ktの突風を伴う
視程10km以上
1,500メートル以下は雲なし、積乱雲なし
21日の 17時(UTC)から 21日の 19時(UTC)まで徐々に
の風 14kt、最大23ktの突風を伴う

TAF: UEEE 210200Z 2103/2209 32006G12MPS CAVOK BECMG 2117/2119 10007G12MPS

4,000以上の空港の気象観測と天気予報(METAR報とTAF報)

利用可能な観測所は地図上に黄色い丸と赤い丸で示す。

丸の上にカーソルを重ねると観測所名を参照できる。

次にクリックすると気象観測と天気予報を参照できる。

マップの切り替え:黒色「×」印の緑ボタンをクリックして拡大、「-」印の緑ボタンをクリックして縮小、緑色の三角印をクリックして隣りの地図に切り替え


METAR-TAF: